Hauptseite
METAR-TAF:

METAR-TAF

Flughäfen :

Ithaca Tompkins Regional Airport

Ithaca, New York, Vereinigte Staaten

Breite: 42-29N, Länge: 076-27W, Höhe: 335 m

Beobachtung

Neuester Wetterbericht von vor 31 Minuten, um 09:56 UTC
Wind 4 kt aus Ost/Südost
Temperatur 19°C
Luftfeuchtigkeit 94%
Luftdruck 1022 hPa
Sichtweite: 16.1 km
Himmel klar

METAR: KITH 270956Z AUTO 11004KT 10SM CLR 19/18 A3017 RMK AO2 SLP207 T01890178

Zeit: 06:27 (10:27 UTC)

Prognose

Neuester Wetterbericht von vor 1 Stunde und 32 Minuten, um 08:55 UTC
Gültige Prognose vom 27 um 09 UTC bis 28 um 06 UTC
Wind 5 kt aus Südost
Sichtweite: 10 km
Himmel klar
Ab 27 um 1500 UTC
Wind 8 kt aus Süd
Sichtweite: 10 km
Leicht bewölkt in der Höhe von 5000 ft
Durchbrochene Bewölkung in der Höhe von 25000 ft

TAF: KITH 270855Z 2709/2806 14005KT P6SM SKC FM271500 18008KT P6SM FEW050 BKN250

Wetterbeobachtungen und Prognosen von mehr als 4000 Flughäfen (METAR und TAF Bericht).

Die verfügbaren Stationen werden durch gelbe und rote Markierungen auf der Karte dargestellt.

Führen Sie die Maus auf sie, um den Namen der Station zu sehen.

Darauf klicken, um die Beobachtung von Wetterbeobachtungen und Prognosen zu sehen.

Um die Karte zu ändern : klicken Sie auf den grünen Tasten mit einem schwarzen Kreuz Zum Vergrößern, auf den grünen Button mit einem Gedankenstrich zu verkleinern, oder auf die grünen Pfeile für benachbarte Karten.


METAR-TAF: